Terminal Aerodrome Forecast
Issued by NWS

Home | Current Version | Previous Version | Graphics & Text | Print | Product List | Glossary On
Versions: 1 2 3 4 5 6 7 8 9 10 11 12 13 14 15 16 17
048
FTUS43 KGRB 230520
TAFCWA
TAF
KCWA 230520Z 2306/2406 01010G15KT P6SM OVC018
      TEMPO 2308/2312 3SM -SN SCT010 BKN014
     FM231200 35012G22KT P6SM OVC025
     FM231900 34013KT P6SM BKN035
     FM240000 33006KT P6SM SCT040
      AMD LTD TO WIND CLD AND VSBYS TIL 12Z=

USA.gov is the U.S. government's official web portal to all federal, state and local government web resources and services.